createdAt,value
2019-03-05T00:01:42.006Z,7.70
2019-03-05T00:04:11.109Z,7.70
2019-03-05T00:06:40.105Z,7.80
2019-03-05T00:09:15.474Z,7.80
2019-03-05T00:11:44.408Z,7.80
2019-03-05T00:14:13.585Z,7.80
2019-03-05T00:16:42.587Z,7.80
2019-03-05T00:19:11.485Z,7.80
2019-03-05T00:21:40.658Z,7.80
2019-03-05T00:24:59.301Z,7.90
2019-03-05T00:27:40.186Z,7.80
2019-03-05T00:30:56.172Z,7.80
2019-03-05T00:33:55.588Z,7.80
2019-03-05T00:36:38.049Z,7.80
2019-03-05T00:39:50.629Z,7.80
2019-03-05T00:42:46.049Z,7.80
2019-03-05T00:45:51.949Z,7.70
2019-03-05T00:49:13.482Z,7.80
2019-03-05T00:51:57.121Z,7.60
2019-03-05T00:55:10.935Z,7.70
2019-03-05T00:58:04.225Z,7.70
2019-03-05T01:00:50.337Z,7.70
2019-03-05T01:03:52.858Z,7.70
2019-03-05T01:06:23.348Z,7.60
2019-03-05T01:08:53.352Z,7.70
2019-03-05T01:11:23.036Z,7.70
2019-03-05T01:13:52.330Z,7.70
2019-03-05T01:16:25.743Z,7.80
2019-03-05T01:18:54.746Z,7.70
2019-03-05T01:21:23.692Z,7.70
2019-03-05T01:23:52.690Z,7.70
2019-03-05T01:26:21.756Z,7.70
2019-03-05T01:28:50.771Z,7.60
2019-03-05T01:31:54.194Z,7.60
2019-03-05T01:34:54.465Z,7.70
2019-03-05T01:37:23.474Z,7.70
2019-03-05T01:40:14.762Z,7.60
2019-03-05T01:42:43.759Z,7.60
2019-03-05T01:45:14.110Z,7.60
2019-03-05T01:47:43.155Z,7.60
2019-03-05T01:50:13.609Z,7.60
2019-03-05T01:52:42.931Z,7.60
2019-03-05T01:55:11.969Z,7.60
2019-03-05T01:57:40.910Z,7.60
2019-03-05T02:00:11.918Z,7.60
2019-03-05T02:02:41.154Z,7.60
2019-03-05T02:05:10.138Z,7.60
2019-03-05T02:07:39.126Z,7.60
2019-03-05T02:10:15.844Z,7.50
2019-03-05T02:12:44.845Z,7.60
2019-03-05T02:15:14.026Z,7.60
2019-03-05T02:17:42.933Z,7.60
2019-03-05T02:20:15.081Z,7.50
2019-03-05T02:23:11.502Z,7.50
2019-03-05T02:26:33.502Z,7.50
2019-03-05T02:29:29.470Z,7.60
2019-03-05T02:32:57.947Z,7.50
2019-03-05T02:35:41.468Z,7.50
2019-03-05T02:38:39.735Z,7.40
2019-03-05T02:41:38.840Z,7.50
2019-03-05T02:44:24.759Z,7.50
2019-03-05T02:47:47.427Z,7.50
2019-03-05T02:50:53.653Z,7.50
2019-03-05T02:53:52.432Z,7.50
2019-03-05T02:57:07.405Z,7.60
2019-03-05T02:59:36.518Z,7.50
2019-03-05T03:02:24.516Z,7.40
2019-03-05T03:04:59.017Z,7.40
2019-03-05T03:07:28.107Z,7.40
2019-03-05T03:10:12.499Z,7.30
2019-03-05T03:12:41.738Z,7.30
2019-03-05T03:15:15.707Z,7.30
2019-03-05T03:17:45.108Z,7.30
2019-03-05T03:20:16.031Z,7.30
2019-03-05T03:22:45.154Z,7.20
2019-03-05T03:25:16.476Z,7.20
2019-03-05T03:27:45.483Z,7.20
2019-03-05T03:30:17.949Z,7.20
2019-03-05T03:32:46.940Z,7.20
2019-03-05T03:35:16.081Z,7.20
2019-03-05T03:37:45.082Z,7.10
2019-03-05T03:40:16.356Z,7.20
2019-03-05T03:42:45.356Z,7.20
2019-03-05T03:45:19.069Z,7.20
2019-03-05T03:47:48.055Z,7.20
2019-03-05T03:50:17.047Z,7.10
2019-03-05T03:52:46.120Z,7.10
2019-03-05T03:55:15.444Z,7.10
2019-03-05T03:57:44.423Z,7.10
2019-03-05T04:00:31.744Z,7.20
2019-03-05T04:03:00.728Z,7.10
2019-03-05T04:05:29.718Z,7.10
2019-03-05T04:07:58.665Z,7.00
2019-03-05T04:10:27.663Z,7.10
2019-03-05T04:12:57.035Z,7.00
2019-03-05T04:15:26.111Z,6.90
2019-03-05T04:17:55.010Z,6.90
2019-03-05T04:20:33.666Z,7.00
2019-03-05T04:23:02.562Z,7.10
2019-03-05T04:25:31.554Z,7.10
2019-03-05T04:28:01.063Z,7.10
2019-03-05T04:30:29.898Z,7.10
2019-03-05T04:32:58.806Z,7.10
2019-03-05T04:35:27.743Z,7.10
2019-03-05T04:37:56.582Z,7.00
2019-03-05T04:40:25.499Z,7.10
2019-03-05T04:42:54.435Z,7.10
2019-03-05T04:45:53.494Z,7.10
2019-03-05T04:48:22.743Z,7.10
2019-03-05T04:50:55.549Z,7.00
2019-03-05T04:53:25.266Z,7.10
2019-03-05T04:55:56.014Z,7.10
2019-03-05T04:58:24.938Z,7.10
2019-03-05T05:00:53.929Z,7.10
2019-03-05T05:03:22.870Z,7.10
2019-03-05T05:05:51.795Z,7.10
2019-03-05T05:08:20.891Z,7.10
2019-03-05T05:10:49.888Z,7.10
2019-03-05T05:13:18.722Z,7.10
2019-03-05T05:15:47.720Z,7.10
2019-03-05T05:18:16.661Z,7.10
2019-03-05T05:20:45.645Z,7.10
2019-03-05T05:23:14.657Z,7.10
2019-03-05T05:25:45.339Z,7.10
2019-03-05T05:28:14.183Z,7.10
2019-03-05T05:30:43.176Z,7.10
2019-03-05T05:33:12.173Z,7.10
2019-03-05T05:35:41.096Z,7.10
2019-03-05T05:38:10.071Z,7.10
2019-03-05T05:40:40.717Z,7.10
2019-03-05T05:43:21.597Z,7.00
2019-03-05T05:45:51.599Z,7.10
2019-03-05T05:48:20.605Z,7.00
2019-03-05T05:50:49.915Z,7.10
2019-03-05T05:53:18.936Z,7.00
2019-03-05T05:55:47.915Z,7.00
2019-03-05T05:58:16.903Z,6.90
2019-03-05T06:00:48.728Z,6.90
2019-03-05T06:03:17.642Z,6.90
2019-03-05T06:05:46.626Z,6.90
2019-03-05T06:08:15.550Z,6.80
2019-03-05T06:10:44.621Z,6.70
2019-03-05T06:13:13.601Z,6.70
2019-03-05T06:15:42.653Z,6.70
2019-03-05T06:18:11.693Z,6.80
2019-03-05T06:20:42.520Z,6.80
2019-03-05T06:23:11.314Z,6.80
2019-03-05T06:25:40.234Z,6.70
2019-03-05T06:28:09.145Z,6.70
2019-03-05T06:30:38.732Z,6.70
2019-03-05T06:33:07.718Z,6.60
2019-03-05T06:35:36.631Z,6.70
2019-03-05T06:38:05.651Z,6.70
2019-03-05T06:40:34.561Z,6.80
2019-03-05T06:43:03.553Z,6.80
2019-03-05T06:45:32.550Z,6.90
2019-03-05T06:48:01.467Z,6.90
2019-03-05T06:50:30.465Z,7.00
2019-03-05T06:52:59.377Z,7.00
2019-03-05T06:55:28.295Z,7.00
2019-03-05T06:57:57.229Z,7.10
2019-03-05T07:00:31.390Z,7.00
2019-03-05T07:03:00.313Z,7.10
2019-03-05T07:06:05.367Z,7.20
2019-03-05T07:08:35.238Z,7.30
2019-03-05T07:11:25.268Z,7.30
2019-03-05T07:13:54.633Z,7.20
2019-03-05T07:16:34.638Z,7.30
2019-03-05T07:19:30.404Z,7.40
2019-03-05T07:22:24.400Z,7.50
2019-03-05T07:24:53.327Z,7.40
2019-03-05T07:27:33.218Z,7.60
2019-03-05T07:30:22.169Z,7.70
2019-03-05T07:32:51.321Z,7.80
2019-03-05T07:35:23.241Z,8.00
2019-03-05T07:37:52.344Z,8.30
2019-03-05T07:40:21.361Z,8.40
2019-03-05T07:42:50.353Z,8.80
2019-03-05T07:45:19.763Z,9.20
2019-03-05T07:47:48.631Z,9.60
2019-03-05T07:50:17.627Z,10.00
2019-03-05T07:52:46.664Z,10.30
2019-03-05T07:55:17.346Z,10.60
2019-03-05T07:57:46.268Z,10.70
2019-03-05T08:00:20.114Z,11.00
2019-03-05T08:02:49.120Z,11.30
2019-03-05T08:05:18.467Z,11.70
2019-03-05T08:07:47.573Z,12.20
2019-03-05T08:10:22.163Z,12.50
2019-03-05T08:13:23.506Z,12.50
2019-03-05T08:16:02.519Z,12.60
2019-03-05T08:18:27.591Z,12.80
2019-03-05T08:20:56.582Z,12.80
2019-03-05T08:23:25.586Z,12.70
2019-03-05T08:25:54.714Z,12.80
2019-03-05T08:28:23.776Z,12.70
2019-03-05T08:30:52.634Z,12.80
2019-03-05T08:33:21.558Z,13.10
2019-03-05T08:35:50.466Z,13.30
2019-03-05T08:38:19.480Z,13.40
2019-03-05T08:40:48.421Z,13.60
2019-03-05T08:43:17.421Z,13.60
2019-03-05T08:45:46.439Z,13.90
2019-03-05T08:48:15.437Z,14.20
2019-03-05T08:50:44.368Z,14.00
2019-03-05T08:53:13.312Z,14.40
2019-03-05T08:55:42.306Z,14.50
2019-03-05T08:58:11.254Z,14.20
2019-03-05T09:00:40.386Z,13.90
2019-03-05T09:03:09.232Z,13.50
2019-03-05T09:05:38.293Z,13.50
2019-03-05T09:08:07.325Z,13.50
2019-03-05T09:10:36.254Z,13.60
2019-03-05T09:13:08.067Z,13.50
2019-03-05T09:15:37.768Z,13.30
2019-03-05T09:18:06.793Z,12.60
2019-03-05T09:20:35.841Z,12.50
2019-03-05T09:23:05.291Z,12.10
2019-03-05T09:25:34.285Z,11.70
2019-03-05T09:28:03.302Z,11.70
2019-03-05T09:30:32.229Z,11.60
2019-03-05T09:33:01.574Z,11.60
2019-03-05T09:35:30.578Z,11.40
2019-03-05T09:37:59.627Z,11.30
2019-03-05T09:40:28.618Z,11.10
2019-03-05T09:42:57.734Z,11.20
2019-03-05T09:45:28.250Z,11.00
2019-03-05T09:47:57.470Z,10.80
2019-03-05T09:50:26.736Z,10.60
2019-03-05T09:52:55.751Z,10.80
2019-03-05T09:55:26.009Z,10.50
2019-03-05T09:58:07.056Z,10.60
2019-03-05T10:00:26.123Z,10.70
2019-03-05T10:02:55.058Z,10.60
2019-03-05T10:05:24.275Z,10.60
2019-03-05T10:07:53.283Z,10.40
2019-03-05T10:10:23.756Z,10.00
2019-03-05T10:12:52.858Z,9.90
2019-03-05T10:15:22.014Z,9.70
2019-03-05T10:17:51.102Z,9.90
2019-03-05T10:20:21.398Z,9.90
2019-03-05T10:22:50.883Z,9.80
2019-03-05T10:25:21.377Z,9.60
2019-03-05T10:27:50.482Z,9.60
2019-03-05T10:30:28.911Z,9.60
2019-03-05T10:32:59.624Z,9.60
2019-03-05T10:35:28.999Z,9.60
2019-03-05T10:37:59.301Z,9.60
2019-03-05T10:40:33.414Z,9.70
2019-03-05T10:43:08.588Z,9.70
2019-03-05T10:45:35.221Z,9.70
2019-03-05T10:48:04.404Z,9.70
2019-03-05T10:50:33.685Z,9.60
2019-03-05T10:53:02.722Z,9.60
2019-03-05T10:55:31.720Z,9.50
2019-03-05T10:58:01.006Z,9.40
2019-03-05T11:00:30.866Z,9.50
2019-03-05T11:03:00.124Z,9.50
2019-03-05T11:05:31.831Z,9.60
2019-03-05T11:08:00.818Z,9.50
2019-03-05T11:10:31.058Z,9.40
2019-03-05T11:13:01.102Z,9.40
2019-03-05T11:15:30.475Z,9.50
2019-03-05T11:17:59.779Z,9.50
2019-03-05T11:20:28.746Z,9.50
2019-03-05T11:22:57.730Z,9.40
2019-03-05T11:25:26.714Z,9.50
2019-03-05T11:27:55.727Z,9.40
2019-03-05T11:30:35.636Z,9.30
2019-03-05T11:32:56.857Z,9.20
2019-03-05T11:35:26.879Z,9.30
2019-03-05T11:37:55.862Z,9.30
2019-03-05T11:40:25.020Z,9.30
2019-03-05T11:42:55.084Z,9.30
2019-03-05T11:45:25.621Z,9.10
2019-03-05T11:47:55.150Z,9.20
2019-03-05T11:50:24.583Z,9.20
2019-03-05T11:52:53.846Z,9.10
2019-03-05T11:55:23.090Z,9.00
2019-03-05T11:57:52.094Z,9.00
2019-03-05T12:00:57.142Z,9.00
2019-03-05T12:03:26.144Z,9.00
2019-03-05T12:05:55.158Z,9.00
2019-03-05T12:08:24.138Z,9.10
2019-03-05T12:10:53.496Z,9.00
2019-03-05T12:13:22.489Z,8.90
2019-03-05T12:15:51.662Z,8.90
2019-03-05T12:18:20.666Z,9.00
2019-03-05T12:20:49.657Z,9.00
2019-03-05T12:23:18.566Z,9.00
2019-03-05T12:25:47.587Z,9.00
2019-03-05T12:28:16.499Z,9.00
2019-03-05T12:30:45.479Z,9.00
2019-03-05T12:33:14.409Z,8.90
2019-03-05T12:35:43.394Z,9.00
2019-03-05T12:38:12.622Z,9.00
2019-03-05T12:40:41.638Z,9.00
2019-03-05T12:43:10.551Z,9.00
2019-03-05T12:45:39.541Z,9.00
2019-03-05T12:48:08.544Z,9.00
2019-03-05T12:50:38.063Z,8.90
2019-03-05T12:53:07.358Z,8.70
2019-03-05T12:55:36.525Z,8.80
2019-03-05T12:58:05.521Z,8.80
2019-03-05T13:00:35.634Z,8.90
2019-03-05T13:03:04.690Z,8.90
2019-03-05T13:05:33.963Z,8.90
2019-03-05T13:08:02.874Z,8.80
2019-03-05T13:10:36.082Z,8.80
2019-03-05T13:13:02.630Z,8.80
2019-03-05T13:15:31.729Z,8.70
2019-03-05T13:18:00.661Z,8.70
2019-03-05T13:20:29.658Z,8.70
2019-03-05T13:22:58.655Z,8.70
2019-03-05T13:25:28.701Z,8.70
2019-03-05T13:28:02.300Z,8.70
2019-03-05T13:30:29.026Z,8.70
2019-03-05T13:32:59.019Z,8.60
2019-03-05T13:35:30.270Z,8.60
2019-03-05T13:38:03.497Z,8.60
2019-03-05T13:40:33.763Z,8.60
2019-03-05T13:43:00.921Z,8.60
2019-03-05T13:45:30.014Z,8.60
2019-03-05T13:48:23.799Z,8.50
2019-03-05T13:51:37.284Z,8.60
2019-03-05T13:54:36.688Z,8.70
2019-03-05T13:57:38.091Z,8.70
2019-03-05T14:00:08.582Z,8.50
2019-03-05T14:02:59.930Z,8.60
2019-03-05T14:06:05.862Z,8.60
2019-03-05T14:09:18.761Z,8.60
2019-03-05T14:11:52.034Z,8.60
2019-03-05T14:14:25.962Z,8.60
2019-03-05T14:17:23.356Z,8.50
2019-03-05T14:19:52.895Z,8.40
2019-03-05T14:22:22.120Z,8.40
2019-03-05T14:25:01.576Z,8.50
2019-03-05T14:27:21.754Z,8.60
2019-03-05T14:29:50.751Z,8.60
2019-03-05T14:32:19.741Z,8.60
2019-03-05T14:35:01.883Z,8.60
2019-03-05T14:37:32.279Z,8.60
2019-03-05T14:40:19.023Z,8.60
2019-03-05T14:42:32.886Z,8.70
2019-03-05T14:45:01.847Z,8.70
2019-03-05T14:47:30.923Z,8.70
2019-03-05T14:50:00.205Z,8.80
2019-03-05T14:52:29.261Z,8.80
2019-03-05T14:54:58.595Z,8.80
2019-03-05T14:57:27.438Z,8.80
2019-03-05T14:59:56.955Z,8.80
2019-03-05T15:02:25.867Z,8.80
2019-03-05T15:04:54.959Z,8.80
2019-03-05T15:07:24.095Z,8.80
2019-03-05T15:09:52.894Z,8.80
2019-03-05T15:12:22.076Z,8.70
2019-03-05T15:14:51.453Z,8.80
2019-03-05T15:17:20.412Z,8.70
2019-03-05T15:19:49.610Z,8.70
2019-03-05T15:22:18.985Z,8.70
2019-03-05T15:24:47.978Z,8.70
2019-03-05T15:27:16.890Z,8.60
2019-03-05T15:29:45.899Z,8.50
2019-03-05T15:32:14.894Z,8.50
2019-03-05T15:34:44.300Z,8.50
2019-03-05T15:37:13.154Z,8.50
2019-03-05T15:39:42.070Z,8.50
2019-03-05T15:42:10.974Z,8.50
2019-03-05T15:44:39.887Z,8.40
2019-03-05T15:47:08.925Z,8.40
2019-03-05T15:49:37.835Z,8.30
2019-03-05T15:52:09.263Z,8.30
2019-03-05T15:54:38.222Z,8.20
2019-03-05T15:57:07.198Z,8.10
2019-03-05T15:59:36.336Z,8.10
2019-03-05T16:02:05.468Z,8.20
2019-03-05T16:04:35.909Z,8.00
2019-03-05T16:07:10.934Z,8.10
2019-03-05T16:09:39.331Z,8.10
2019-03-05T16:12:09.485Z,8.00
2019-03-05T16:14:38.618Z,8.00
2019-03-05T16:17:07.597Z,8.00
2019-03-05T16:19:36.501Z,8.10
2019-03-05T16:22:05.642Z,8.00
2019-03-05T16:24:37.544Z,8.00
2019-03-05T16:27:05.350Z,8.00
2019-03-05T16:29:34.283Z,8.00
2019-03-05T16:32:28.208Z,7.90
2019-03-05T16:35:18.470Z,7.90
2019-03-05T16:38:10.462Z,7.90
2019-03-05T16:40:57.404Z,7.90
2019-03-05T16:43:44.773Z,7.70
2019-03-05T16:46:34.011Z,7.70
2019-03-05T16:49:15.653Z,7.80
2019-03-05T16:51:51.062Z,7.80
2019-03-05T16:54:25.921Z,7.80
2019-03-05T16:57:20.154Z,7.80
2019-03-05T17:00:05.403Z,7.70
2019-03-05T17:02:44.317Z,7.70
2019-03-05T17:05:24.674Z,7.70
2019-03-05T17:08:15.735Z,7.70
2019-03-05T17:11:03.922Z,7.60
2019-03-05T17:13:32.849Z,7.50
2019-03-05T17:16:01.850Z,7.60
2019-03-05T17:18:30.937Z,7.50
2019-03-05T17:20:59.886Z,7.60
2019-03-05T17:23:29.022Z,7.50
2019-03-05T17:25:58.001Z,7.60
2019-03-05T17:28:27.426Z,7.60
2019-03-05T17:30:56.337Z,7.60
2019-03-05T17:33:25.399Z,7.50
2019-03-05T17:35:54.438Z,7.50
2019-03-05T17:38:23.350Z,7.40
2019-03-05T17:40:52.570Z,7.40
2019-03-05T17:43:21.902Z,7.50
2019-03-05T17:45:50.877Z,7.40
2019-03-05T17:48:19.860Z,7.40
2019-03-05T17:50:48.914Z,7.30
2019-03-05T17:53:17.750Z,7.20
2019-03-05T17:55:47.116Z,7.30
2019-03-05T17:58:16.086Z,7.50
2019-03-05T18:00:47.290Z,7.50
2019-03-05T18:03:16.274Z,7.50
2019-03-05T18:05:45.281Z,7.50
2019-03-05T18:08:14.271Z,7.50
2019-03-05T18:10:43.260Z,7.50
2019-03-05T18:13:12.336Z,7.50
2019-03-05T18:15:41.417Z,7.50
2019-03-05T18:18:10.323Z,7.60
2019-03-05T18:20:39.466Z,7.50
2019-03-05T18:23:08.447Z,7.50
2019-03-05T18:25:37.438Z,7.50
2019-03-05T18:28:06.586Z,7.50
2019-03-05T18:30:36.000Z,7.40
2019-03-05T18:33:05.014Z,7.40
2019-03-05T18:35:34.209Z,7.50
2019-03-05T18:38:03.189Z,7.60
2019-03-05T18:40:32.677Z,7.50
2019-03-05T18:43:01.699Z,7.50
2019-03-05T18:45:30.786Z,7.50
2019-03-05T18:47:59.850Z,7.60
2019-03-05T18:50:29.171Z,7.40
2019-03-05T18:52:58.694Z,7.50
2019-03-05T18:55:27.891Z,7.50
2019-03-05T18:57:56.870Z,7.50
2019-03-05T19:00:25.962Z,7.40
2019-03-05T19:02:55.413Z,7.50
2019-03-05T19:05:24.492Z,7.40
2019-03-05T19:07:54.337Z,7.50
2019-03-05T19:10:23.960Z,7.60
2019-03-05T19:12:53.079Z,7.60
2019-03-05T19:15:22.297Z,7.60
2019-03-05T19:17:51.334Z,7.40
2019-03-05T19:20:22.408Z,7.40
2019-03-05T19:22:51.402Z,7.40
2019-03-05T19:25:22.490Z,7.50
2019-03-05T19:27:51.823Z,7.60
2019-03-05T19:30:26.170Z,7.60
2019-03-05T19:32:55.169Z,7.70
2019-03-05T19:35:24.233Z,7.60
2019-03-05T19:37:53.221Z,7.50
2019-03-05T19:40:24.454Z,7.40
2019-03-05T19:42:53.441Z,7.50
2019-03-05T19:45:22.579Z,7.50
2019-03-05T19:47:51.667Z,7.50
2019-03-05T19:50:20.968Z,7.60
2019-03-05T19:52:50.005Z,7.60
2019-03-05T19:55:19.816Z,7.60
2019-03-05T19:57:49.236Z,7.60
2019-03-05T20:00:24.406Z,7.60
2019-03-05T20:02:53.379Z,7.60
2019-03-05T20:05:22.717Z,7.70
2019-03-05T20:07:51.753Z,7.60
2019-03-05T20:10:21.259Z,7.60
2019-03-05T20:12:50.814Z,7.50
2019-03-05T20:15:19.850Z,7.60
2019-03-05T20:17:58.534Z,7.60
2019-03-05T20:20:19.777Z,7.60
2019-03-05T20:22:48.804Z,7.60
2019-03-05T20:25:18.646Z,7.70
2019-03-05T20:27:51.323Z,7.80
2019-03-05T20:30:20.846Z,7.80
2019-03-05T20:32:50.330Z,7.80
2019-03-05T20:35:19.372Z,7.70
2019-03-05T20:37:48.374Z,7.70
2019-03-05T20:40:18.483Z,7.70
2019-03-05T20:42:47.503Z,7.70
2019-03-05T20:45:20.407Z,7.70
2019-03-05T20:47:49.479Z,7.70
2019-03-05T20:50:19.068Z,7.70
2019-03-05T20:52:48.530Z,7.60
2019-03-05T20:55:18.264Z,7.60
2019-03-05T20:57:47.185Z,7.60
2019-03-05T21:00:22.544Z,7.60
2019-03-05T21:02:51.884Z,7.60
2019-03-05T21:05:20.882Z,7.70
2019-03-05T21:07:49.884Z,7.70
2019-03-05T21:10:18.971Z,7.80
2019-03-05T21:12:48.226Z,7.80
2019-03-05T21:15:17.330Z,7.80
2019-03-05T21:17:46.349Z,7.80
2019-03-05T21:20:15.610Z,7.70
2019-03-05T21:22:44.918Z,7.80
2019-03-05T21:25:14.074Z,7.90
2019-03-05T21:27:43.062Z,7.70
2019-03-05T21:30:14.826Z,7.60
2019-03-05T21:32:43.818Z,7.70
2019-03-05T21:35:12.915Z,7.70
2019-03-05T21:37:41.858Z,7.70
2019-03-05T21:40:18.992Z,7.70
2019-03-05T21:42:47.990Z,7.80
2019-03-05T21:45:19.306Z,7.90
2019-03-05T21:47:48.298Z,7.90
2019-03-05T21:50:17.750Z,7.90
2019-03-05T21:52:46.671Z,7.90
2019-03-05T21:55:15.777Z,7.90
2019-03-05T21:57:44.857Z,7.80
2019-03-05T22:00:16.351Z,7.80
2019-03-05T22:02:45.344Z,7.90
2019-03-05T22:05:14.347Z,7.90
2019-03-05T22:07:43.577Z,7.90
2019-03-05T22:10:15.073Z,7.90
2019-03-05T22:12:44.242Z,7.80
2019-03-05T22:15:15.343Z,7.90
2019-03-05T22:17:44.408Z,7.80
2019-03-05T22:20:14.309Z,7.80
2019-03-05T22:22:43.288Z,7.80
2019-03-05T22:25:14.154Z,7.80
2019-03-05T22:27:43.155Z,7.90
2019-03-05T22:30:15.084Z,7.90
2019-03-05T22:32:44.069Z,7.90
2019-03-05T22:35:14.235Z,7.90
2019-03-05T22:37:43.214Z,7.90
2019-03-05T22:40:12.361Z,7.80
2019-03-05T22:42:41.657Z,7.80
2019-03-05T22:45:13.468Z,7.80
2019-03-05T22:47:42.618Z,7.80
2019-03-05T22:50:11.682Z,7.90
2019-03-05T22:52:41.769Z,7.90
2019-03-05T22:55:10.878Z,7.90
2019-03-05T22:57:39.889Z,7.80
2019-03-05T23:00:12.846Z,7.80
2019-03-05T23:02:42.070Z,7.70
2019-03-05T23:05:11.419Z,7.70
2019-03-05T23:07:40.432Z,7.60
2019-03-05T23:10:10.317Z,7.60
2019-03-05T23:12:39.737Z,7.40
2019-03-05T23:15:09.738Z,7.40
2019-03-05T23:17:38.797Z,7.40
2019-03-05T23:20:08.474Z,7.40
2019-03-05T23:22:37.461Z,7.40
2019-03-05T23:25:06.654Z,7.40
2019-03-05T23:27:35.853Z,7.30
2019-03-05T23:30:07.681Z,7.30
2019-03-05T23:32:36.742Z,7.20
2019-03-05T23:35:06.429Z,7.30
2019-03-05T23:37:35.346Z,7.30
2019-03-05T23:40:04.374Z,7.20
2019-03-05T23:42:33.472Z,7.20
2019-03-05T23:45:02.467Z,7.00
2019-03-05T23:47:31.373Z,7.00
2019-03-05T23:50:00.351Z,7.10
2019-03-05T23:52:29.625Z,7.10
2019-03-05T23:54:58.573Z,7.00
2019-03-05T23:57:27.609Z,6.90
2019-03-05T23:59:56.452Z,6.90
